Time;durP1;ratioP1;P1;durP2;ratioP2;P2;SDS_P1;SDS_P2;PMS_P1;PMS_P2;Temp;Humidity;BMP_temperature;BMP_pressure;BME280_temperature;BME280_humidity;BME280_pressure;Samples;Min_cycle;Max_cycle;Signal;HPM_P1;HPM_P2
2022/12/31 00:01:40;;;;;;;17.10;2.67;;;16.20;99.80;;;;;;7364903;19;20101;-77
2022/12/31 00:04:09;;;;;;;13.73;2.03;;;16.10;99.90;;;;;;7364173;19;20015;-78
2022/12/31 00:06:38;;;;;;;15.63;2.53;;;16.10;99.80;;;;;;7362161;19;20035;-76
2022/12/31 00:09:09;;;;;;;17.40;2.72;;;16.20;99.60;;;;;;7370082;19;20037;-77
2022/12/31 00:11:39;;;;;;;;;;;16.10;99.90;;;;;;7386195;19;20020;-77
2022/12/31 00:14:08;;;;;;;13.57;2.50;;;16.20;99.70;;;;;;7365561;19;20278;-76
2022/12/31 00:16:38;;;;;;;16.98;2.78;;;16.20;99.50;;;;;;7365690;19;20011;-76
2022/12/31 00:19:11;;;;;;;8.95;2.15;;;16.20;99.40;;;;;;7367881;19;20032;-77
2022/12/31 00:21:40;;;;;;;10.18;2.83;;;16.30;99.40;;;;;;7360332;19;20089;-76
2022/12/31 00:24:13;;;;;;;15.07;2.00;;;16.30;99.30;;;;;;7364465;19;20082;-77
2022/12/31 00:26:41;;;;;;;10.65;1.80;;;16.20;99.20;;;;;;7383996;19;20014;-76
2022/12/31 00:29:11;;;;;;;14.50;2.20;;;16.30;99.20;;;;;;7364672;19;20014;-77
2022/12/31 00:31:41;;;;;;;12.40;1.95;;;16.10;99.40;;;;;;7365881;19;20525;-78
2022/12/31 00:34:11;;;;;;;9.10;1.70;;;16.30;99.10;;;;;;7366237;19;20509;-78
2022/12/31 00:36:41;;;;;;;7.90;1.60;;;16.10;99.10;;;;;;7367141;19;20082;-77
2022/12/31 00:39:12;;;;;;;9.38;2.00;;;16.10;99.50;;;;;;7366379;19;20018;-78
2022/12/31 00:41:42;;;;;;;;;;;16.30;99.10;;;;;;7387274;19;20089;-77
2022/12/31 00:44:12;;;;;;;14.73;2.55;;;16.10;99.40;;;;;;7366280;19;19929;-77
2022/12/31 00:46:41;;;;;;;11.77;1.75;;;16.30;99.20;;;;;;7364297;19;20146;-77
2022/12/31 00:49:10;;;;;;;12.40;2.28;;;16.40;98.90;;;;;;7364746;19;20509;-77
2022/12/31 00:51:39;;;;;;;9.23;1.58;;;16.30;99.00;;;;;;7365783;19;20093;-77
2022/12/31 00:54:08;;;;;;;10.18;1.67;;;16.50;98.70;;;;;;7366413;19;20021;-77
2022/12/31 00:56:40;;;;;;;15.50;1.90;;;16.40;98.90;;;;;;7385769;19;20327;-77
2022/12/31 00:59:08;;;;;;;;;;;16.50;98.80;;;;;;7365244;19;20022;-77
2022/12/31 01:01:39;;;;;;;10.23;1.50;;;16.40;98.90;;;;;;7364892;19;20237;-77
2022/12/31 01:04:11;;;;;;;12.87;1.70;;;16.60;98.60;;;;;;7364733;19;20085;-77
2022/12/31 01:06:40;;;;;;;8.77;1.90;;;16.50;98.50;;;;;;7365531;19;20025;-78
2022/12/31 01:09:09;;;;;;;10.20;1.80;;;16.20;99.10;;;;;;7363530;19;20094;-78
2022/12/31 01:11:41;;;;;;;10.93;1.42;;;16.20;99.20;;;;;;7387185;19;20748;-77
2022/12/31 01:14:10;;;;;;;;;;;16.20;99.10;;;;;;7366279;19;20127;-78
2022/12/31 01:16:41;;;;;;;13.50;1.83;;;16.50;98.90;;;;;;7362617;19;19930;-77
2022/12/31 01:19:12;;;;;;;14.18;2.17;;;16.40;98.80;;;;;;7365423;19;20025;-77
2022/12/31 01:21:42;;;;;;;8.60;1.48;;;16.50;98.60;;;;;;7365248;19;20106;-77
2022/12/31 01:24:12;;;;;;;9.50;2.10;;;16.50;98.50;;;;;;7365155;19;20097;-77
2022/12/31 01:26:44;;;;;;;10.95;2.35;;;16.40;98.50;;;;;;7387813;19;20032;-77
2022/12/31 01:29:15;;;;;;;8.65;1.80;;;16.50;98.50;;;;;;7366119;19;20089;-77
2022/12/31 01:31:45;;;;;;;10.75;1.55;;;16.20;98.90;;;;;;7364735;19;20462;-77
2022/12/31 01:34:13;;;;;;;5.43;1.50;;;16.20;99.10;;;;;;7371661;19;20042;-77
2022/12/31 01:36:42;;;;;;;6.95;1.67;;;16.30;99.00;;;;;;7370078;19;20789;-77
2022/12/31 01:39:12;;;;;;;10.07;2.08;;;16.30;99.00;;;;;;7371006;19;20026;-78
2022/12/31 01:41:47;;;;;;;11.93;1.90;;;16.40;99.00;;;;;;7393050;19;20446;-77
2022/12/31 01:44:46;;;;;;;9.23;1.40;;;16.10;99.50;;;;;;7371655;19;20640;-77
2022/12/31 01:47:19;;;;;;;11.02;1.50;;;16.20;99.40;;;;;;7371498;19;20438;-76
2022/12/31 01:49:51;;;;;;;7.82;1.77;;;16.20;99.30;;;;;;7372104;19;20082;-77
2022/12/31 01:52:25;;;;;;;8.25;1.50;;;16.30;98.80;;;;;;7371314;19;20090;-76
2022/12/31 01:54:59;;;;;;;11.68;1.75;;;16.20;98.90;;;;;;7371255;19;20023;-77
2022/12/31 01:57:32;;;;;;;9.38;1.83;;;16.20;98.90;;;;;;7369837;19;20024;-77
2022/12/31 02:00:02;;;;;;;7.88;1.52;;;16.30;98.80;;;;;;7391935;19;20633;-77
2022/12/31 02:02:30;;;;;;;6.68;1.33;;;16.40;98.90;;;;;;7371606;19;20558;-77
2022/12/31 02:05:02;;;;;;;9.88;1.40;;;16.40;98.40;;;;;;7369695;19;20409;-77
2022/12/31 02:07:30;;;;;;;4.80;1.20;;;16.50;98.10;;;;;;7371007;19;20085;-77
2022/12/31 02:09:59;;;;;;;5.25;1.48;;;16.60;97.90;;;;;;7370513;19;20078;-77
2022/12/31 02:12:31;;;;;;;9.93;1.30;;;16.60;97.70;;;;;;7372983;19;20014;-78
2022/12/31 02:14:59;;;;;;;11.10;1.55;;;16.50;97.70;;;;;;7390349;19;20102;-77
2022/12/31 02:17:35;;;;;;;6.53;1.30;;;16.60;97.80;;;;;;7369870;19;20093;-77
2022/12/31 02:20:33;;;;;;;7.43;1.20;;;16.60;97.30;;;;;;7378435;19;20182;-79
2022/12/31 02:23:29;;;;;;;11.63;1.77;;;16.20;98.00;;;;;;7373241;19;20030;-77
2022/12/31 02:26:26;;;;;;;3.72;1.20;;;16.30;98.10;;;;;;7373507;19;20018;-77
2022/12/31 02:29:27;;;;;;;8.93;1.77;;;16.50;97.60;;;;;;7372375;19;20090;-78
2022/12/31 02:32:02;;;;;;;3.92;1.48;;;16.40;97.60;;;;;;7372802;19;20393;-77
2022/12/31 02:34:35;;;;;;;8.57;1.33;;;16.60;97.30;;;;;;7373195;19;20014;-77
2022/12/31 02:37:08;;;;;;;6.10;1.48;;;16.50;97.60;;;;;;7376667;19;20028;-77
2022/12/31 02:39:38;;;;;;;7.53;1.58;;;16.70;97.10;;;;;;7374320;19;20117;-77
2022/12/31 02:42:06;;;;;;;9.45;1.30;;;16.50;97.60;;;;;;7380614;19;20086;-78
2022/12/31 02:44:37;;;;;;;5.10;1.25;;;16.60;97.10;;;;;;7389441;19;20533;-77
2022/12/31 02:47:22;;;;;;;4.82;1.17;;;16.70;97.00;;;;;;7370930;19;20054;-77
2022/12/31 02:50:02;;;;;;;3.15;1.30;;;16.60;96.70;;;;;;7369866;19;20025;-78
2022/12/31 02:52:43;;;;;;;6.68;1.55;;;16.60;96.90;;;;;;7371494;19;20045;-77
2022/12/31 02:55:18;;;;;;;7.63;1.60;;;16.80;96.50;;;;;;7371130;19;20082;-77
2022/12/31 02:57:55;;;;;;;8.23;1.10;;;16.60;96.60;;;;;;7368444;19;20022;-77
2022/12/31 03:03:09;;;;;;;9.25;1.48;;;16.70;96.60;;;;;;7392685;19;20029;-78
2022/12/31 03:05:41;;;;;;;7.20;1.67;;;16.60;96.60;;;;;;7369666;19;20021;-77
2022/12/31 03:08:11;;;;;;;10.88;1.42;;;16.80;96.40;;;;;;7367562;19;20086;-77
2022/12/31 03:10:41;;;;;;;6.93;1.27;;;16.70;96.40;;;;;;7367178;19;20643;-78
2022/12/31 03:13:07;;;;;;;4.55;1.23;;;16.50;96.40;;;;;;7370062;19;20037;-77
2022/12/31 03:15:37;;;;;;;9.88;1.40;;;16.60;96.50;;;;;;7369205;19;20010;-77
2022/12/31 03:18:11;;;;;;;12.75;2.15;;;16.70;96.30;;;;;;7384338;19;20314;-77
2022/12/31 03:23:25;;;;;;;8.43;1.67;;;16.60;96.40;;;;;;7373690;19;20432;-76
2022/12/31 03:25:52;;;;;;;9.32;1.48;;;16.40;96.60;;;;;;7365922;19;20506;-77
2022/12/31 03:28:25;;;;;;;6.40;1.60;;;16.40;96.70;;;;;;7372128;19;20045;-77
2022/12/31 03:30:56;;;;;;;7.63;1.60;;;16.40;96.60;;;;;;7373301;19;20584;-78
2022/12/31 03:33:28;;;;;;;6.78;1.40;;;16.60;96.20;;;;;;7370153;19;20415;-77
2022/12/31 03:35:59;;;;;;;10.98;1.50;;;16.60;96.00;;;;;;7395607;19;20039;-78
2022/12/31 03:38:28;;;;;;;6.18;2.03;;;16.70;95.90;;;;;;7371968;19;20035;-78
2022/12/31 03:40:57;;;;;;;8.05;1.85;;;16.60;96.00;;;;;;7368817;19;20026;-77
2022/12/31 03:43:25;;;;;;;8.77;2.00;;;16.60;95.90;;;;;;7368516;19;20117;-78
2022/12/31 03:45:58;;;;;;;7.88;1.70;;;16.60;95.80;;;;;;7367484;19;20090;-78
2022/12/31 03:48:30;;;;;;;6.45;1.90;;;16.60;95.70;;;;;;7369703;19;20024;-77
2022/12/31 03:50:58;;;;;;;8.93;1.80;;;16.20;96.30;;;;;;7389882;19;20035;-76
2022/12/31 03:53:27;;;;;;;16.98;2.13;;;16.40;96.20;;;;;;7368782;19;20649;-77
2022/12/31 03:55:56;;;;;;;15.63;2.65;;;16.50;96.20;;;;;;7365570;19;20019;-77
2022/12/31 03:58:25;;;;;;;11.48;2.30;;;16.40;96.10;;;;;;7368527;19;20014;-77
2022/12/31 04:00:54;;;;;;;11.80;1.92;;;16.50;96.00;;;;;;7366130;19;20027;-77
2022/12/31 04:03:22;;;;;;;8.48;1.90;;;16.60;95.70;;;;;;7366520;19;20102;-77
2022/12/31 04:05:57;;;;;;;9.60;1.85;;;16.60;95.50;;;;;;7388545;19;20055;-77
2022/12/31 04:08:26;;;;;;;9.45;2.05;;;16.60;95.40;;;;;;7367106;19;20097;-77
2022/12/31 04:10:54;;;;;;;15.73;2.85;;;16.70;95.40;;;;;;7368371;19;20439;-77
2022/12/31 04:13:23;;;;;;;7.80;1.90;;;16.70;95.20;;;;;;7367753;19;20015;-76
2022/12/31 04:15:53;;;;;;;16.58;2.20;;;16.80;95.30;;;;;;7366342;19;20078;-77
2022/12/31 04:18:21;;;;;;;14.57;2.17;;;16.70;95.30;;;;;;7369707;19;20802;-77
2022/12/31 04:20:50;;;;;;;12.75;2.25;;;16.30;95.70;;;;;;7391402;19;20090;-76
2022/12/31 04:23:21;;;;;;;13.50;2.10;;;16.40;95.80;;;;;;7370672;19;20019;-77
2022/12/31 04:25:50;;;;;;;13.80;2.40;;;16.60;95.40;;;;;;7368522;19;20053;-76
2022/12/31 04:28:19;;;;;;;8.20;2.15;;;16.70;95.20;;;;;;7369134;19;20085;-76
2022/12/31 04:30:48;;;;;;;10.32;2.40;;;16.60;95.30;;;;;;7372780;19;20019;-77
2022/12/31 04:33:16;;;;;;;9.90;2.20;;;16.70;95.00;;;;;;7370701;19;20472;-77
2022/12/31 04:35:45;;;;;;;11.40;1.85;;;16.70;95.10;;;;;;7389560;19;20106;-77
2022/12/31 04:38:14;;;;;;;12.55;2.42;;;16.70;95.10;;;;;;7368800;19;20078;-77
2022/12/31 04:43:27;;;;;;;13.35;2.10;;;16.60;95.30;;;;;;7367044;19;20024;-77
2022/12/31 04:45:56;;;;;;;13.32;2.22;;;16.50;95.50;;;;;;7367709;19;20035;-77
2022/12/31 04:48:25;;;;;;;12.07;2.20;;;16.60;95.50;;;;;;7367575;19;20093;-77
2022/12/31 04:50:56;;;;;;;10.65;2.17;;;16.70;95.30;;;;;;7388745;19;20015;-77
2022/12/31 04:53:24;;;;;;;16.40;2.47;;;16.80;95.00;;;;;;7365786;19;20442;-77
2022/12/31 04:55:56;;;;;;;13.60;2.30;;;16.40;95.30;;;;;;7363001;19;20031;-78
2022/12/31 04:58:25;;;;;;;10.82;2.53;;;16.60;95.30;;;;;;7368564;19;20039;-77
2022/12/31 05:00:55;;;;;;;20.92;2.22;;;16.70;95.10;;;;;;7366037;19;20018;-77
2022/12/31 05:03:25;;;;;;;7.25;2.15;;;16.80;94.80;;;;;;7363458;19;20022;-77
2022/12/31 05:05:55;;;;;;;7.93;2.00;;;16.90;94.60;;;;;;7387515;19;20094;-77
2022/12/31 05:08:24;;;;;;;13.50;1.88;;;16.70;95.30;;;;;;7373013;19;20259;-77
2022/12/31 05:10:55;;;;;;;13.48;2.25;;;16.70;94.90;;;;;;7373456;19;20413;-78
2022/12/31 05:13:24;;;;;;;8.63;1.83;;;16.50;95.10;;;;;;7372013;19;20094;-77
2022/12/31 05:15:54;;;;;;;14.27;2.55;;;16.60;95.00;;;;;;7372703;19;20094;-77
2022/12/31 05:18:24;;;;;;;12.77;2.15;;;16.50;95.10;;;;;;7378239;19;20129;-78
2022/12/31 05:20:53;;;;;;;18.13;2.42;;;16.70;95.20;;;;;;7400302;19;20107;-77
2022/12/31 05:23:22;;;;;;;15.13;2.75;;;16.80;94.50;;;;;;7377123;19;20090;-76
2022/12/31 05:25:50;;;;;;;11.95;1.95;;;16.70;94.60;;;;;;7373113;19;20087;-77
2022/12/31 05:28:22;;;;;;;11.85;2.15;;;16.60;94.70;;;;;;7377392;19;20019;-78
2022/12/31 05:30:52;;;;;;;15.65;2.40;;;16.60;94.90;;;;;;7374112;19;20749;-77
2022/12/31 05:33:21;;;;;;;12.75;2.63;;;16.60;94.90;;;;;;7376799;19;20078;-78
2022/12/31 05:35:50;;;;;;;11.52;2.72;;;16.80;94.60;;;;;;7396233;19;20045;-77
2022/12/31 05:38:19;;;;;;;12.57;2.22;;;16.50;94.80;;;;;;7375791;19;20018;-76
2022/12/31 05:40:47;;;;;;;13.50;2.90;;;16.40;95.00;;;;;;7373923;19;20024;-77
2022/12/31 05:43:16;;;;;;;12.77;2.25;;;16.50;94.90;;;;;;7375698;19;20019;-78
2022/12/31 05:45:48;;;;;;;12.18;2.47;;;16.70;94.60;;;;;;7373930;19;20302;-77
2022/12/31 05:48:16;;;;;;;12.55;2.45;;;16.70;94.40;;;;;;7369910;19;20018;-78
2022/12/31 05:50:45;;;;;;;13.95;2.10;;;16.90;94.30;;;;;;7394162;19;20435;-78
2022/12/31 05:53:14;;;;;;;12.35;2.30;;;16.80;94.40;;;;;;7372464;19;20018;-77
2022/12/31 05:55:42;;;;;;;13.63;2.33;;;16.90;94.10;;;;;;7370149;19;20010;-77
2022/12/31 05:58:18;;;;;;;18.50;2.92;;;16.90;94.10;;;;;;7373428;19;20129;-79
2022/12/31 06:00:56;;;;;;;9.80;2.10;;;17.00;94.10;;;;;;7374534;19;20042;-77
2022/12/31 06:03:55;;;;;;;11.27;2.60;;;16.80;94.00;;;;;;7373597;19;20027;-77
2022/12/31 06:06:38;;;;;;;;;;;;;;;;;;;;;
2022/12/31 06:09:07;;;;;;;12.15;3.13;;;16.70;94.20;;;;;;7373272;19;20025;-76
2022/12/31 06:11:36;;;;;;;14.93;2.80;;;16.70;94.20;;;;;;7390107;19;20438;-77
2022/12/31 06:14:05;;;;;;;11.63;2.65;;;16.80;94.00;;;;;;7368850;19;20391;-76
2022/12/31 06:16:36;;;;;;;12.80;2.60;;;16.80;93.90;;;;;;7372393;19;20081;-77
2022/12/31 06:19:05;;;;;;;18.70;2.78;;;16.90;93.90;;;;;;7368917;19;20042;-77
2022/12/31 06:21:34;;;;;;;17.08;2.80;;;16.80;94.00;;;;;;7372150;19;20660;-77
2022/12/31 06:24:03;;;;;;;15.48;2.75;;;16.80;94.10;;;;;;7390341;19;20019;-76
2022/12/31 06:26:32;;;;;;;15.13;2.78;;;16.90;94.20;;;;;;7365834;19;20021;-77
2022/12/31 06:29:00;;;;;;;10.45;2.45;;;16.70;93.90;;;;;;7368419;19;20110;-77
2022/12/31 06:31:29;;;;;;;15.18;2.45;;;16.50;94.20;;;;;;7370484;19;20017;-77
2022/12/31 06:34:00;;;;;;;19.90;3.22;;;16.50;94.40;;;;;;7372426;19;20096;-77
2022/12/31 06:36:29;;;;;;;15.73;2.92;;;16.60;94.40;;;;;;7374605;19;20035;-77
2022/12/31 06:38:58;;;;;;;10.30;2.30;;;16.90;94.10;;;;;;7389080;19;20094;-77
2022/12/31 06:41:27;;;;;;;13.25;2.55;;;16.70;94.00;;;;;;7371181;19;20024;-76
2022/12/31 06:43:55;;;;;;;9.07;2.35;;;16.80;94.00;;;;;;7373421;19;20018;-76
2022/12/31 06:46:24;;;;;;;12.93;2.35;;;16.90;93.70;;;;;;7372992;19;20509;-77
2022/12/31 06:48:53;;;;;;;11.68;3.05;;;16.60;94.00;;;;;;7372222;19;20027;-77
2022/12/31 06:51:24;;;;;;;13.45;2.72;;;16.70;93.90;;;;;;7371422;19;20127;-77
2022/12/31 06:53:53;;;;;;;;;;;16.90;93.80;;;;;;7390607;19;20035;-76
2022/12/31 06:56:25;;;;;;;19.23;2.55;;;16.80;93.90;;;;;;7369552;19;19925;-77
2022/12/31 06:58:53;;;;;;;;;;;16.90;93.70;;;;;;7373382;19;20010;-77
2022/12/31 07:01:35;;;;;;;13.52;2.70;;;17.00;93.60;;;;;;7369775;19;20014;-76
2022/12/31 07:04:23;;;;;;;12.38;2.28;;;16.70;93.80;;;;;;7371100;19;20135;-77
2022/12/31 07:07:03;;;;;;;14.85;2.50;;;16.70;93.90;;;;;;7374018;19;20021;-76
2022/12/31 07:09:39;;;;;;;11.82;2.47;;;16.70;93.70;;;;;;7369005;19;20010;-77
2022/12/31 07:12:22;;;;;;;11.52;2.55;;;16.60;94.00;;;;;;7371002;19;20581;-76
2022/12/31 07:14:56;;;;;;;14.90;2.38;;;16.80;93.80;;;;;;7394471;19;20015;-77
2022/12/31 07:17:35;;;;;;;14.82;2.50;;;16.80;93.70;;;;;;7372197;19;20108;-76
2022/12/31 07:20:08;;;;;;;13.05;2.70;;;16.90;93.40;;;;;;7375248;19;20054;-77
2022/12/31 07:22:40;;;;;;;15.07;3.20;;;16.90;93.30;;;;;;7372125;19;20031;-78
2022/12/31 07:25:14;;;;;;;13.40;2.67;;;16.80;93.20;;;;;;7368956;19;20049;-77
2022/12/31 07:28:03;;;;;;;11.57;2.30;;;16.80;93.40;;;;;;7369895;19;20015;-78
2022/12/31 07:30:40;;;;;;;9.73;2.42;;;16.90;93.30;;;;;;7368257;19;20036;-77
2022/12/31 07:33:26;;;;;;;14.52;2.53;;;17.00;92.90;;;;;;7371978;19;20025;-77
2022/12/31 07:36:05;;;;;;;14.40;3.05;;;17.00;92.80;;;;;;7393317;19;20070;-77
2022/12/31 07:38:44;;;;;;;8.98;2.10;;;17.10;92.70;;;;;;7373349;19;20426;-78
2022/12/31 07:41:19;;;;;;;10.73;2.45;;;17.10;92.50;;;;;;7375422;19;20113;-77
2022/12/31 07:43:58;;;;;;;18.27;3.72;;;17.00;92.70;;;;;;7374145;19;20085;-77
2022/12/31 07:46:35;;;;;;;12.25;2.83;;;17.10;92.60;;;;;;7369360;19;20498;-78
2022/12/31 07:49:04;;;;;;;12.43;2.40;;;16.70;92.70;;;;;;7369321;19;20014;-77
2022/12/31 07:51:33;;;;;;;8.98;2.17;;;16.60;93.30;;;;;;7370287;19;20631;-78
2022/12/31 07:54:05;;;;;;;16.80;2.70;;;16.70;93.20;;;;;;7389557;19;20041;-77
2022/12/31 07:56:34;;;;;;;14.00;2.47;;;16.60;93.20;;;;;;7363673;19;20047;-77
2022/12/31 07:59:15;;;;;;;13.73;3.53;;;16.70;92.80;;;;;;7369810;19;20011;-77
2022/12/31 08:01:48;;;;;;;;;;;16.70;92.80;;;;;;7371605;19;20928;-77
2022/12/31 08:04:26;;;;;;;11.13;2.92;;;16.90;92.60;;;;;;7371511;19;19994;-78
2022/12/31 08:07:01;;;;;;;15.52;2.78;;;17.00;92.40;;;;;;7371060;19;20037;-77
2022/12/31 08:09:44;;;;;;;15.90;2.92;;;17.00;92.40;;;;;;7369689;19;20010;-76
2022/12/31 08:12:14;;;;;;;13.25;2.70;;;16.90;92.30;;;;;;7370563;19;20825;-78
2022/12/31 08:14:46;;;;;;;15.93;2.92;;;17.00;92.20;;;;;;7392658;19;20028;-77
2022/12/31 08:17:17;;;;;;;9.02;2.38;;;17.00;92.20;;;;;;7370529;19;20019;-77
2022/12/31 08:19:47;;;;;;;8.45;2.85;;;17.00;92.20;;;;;;7372157;19;20028;-77
2022/12/31 08:22:39;;;;;;;14.15;3.15;;;16.80;92.20;;;;;;7371514;19;20545;-76
2022/12/31 08:25:18;;;;;;;13.48;2.90;;;16.50;92.90;;;;;;7368883;19;20119;-77
2022/12/31 08:27:56;;;;;;;13.00;2.53;;;16.70;92.60;;;;;;7369014;19;20020;-77
2022/12/31 08:30:37;;;;;;;12.63;2.75;;;16.70;92.40;;;;;;7367475;19;26057;-77
2022/12/31 08:33:12;;;;;;;7.80;2.40;;;16.90;92.30;;;;;;7387869;19;20025;-77
2022/12/31 08:35:58;;;;;;;8.90;2.92;;;16.80;92.20;;;;;;7388015;19;20188;-77
2022/12/31 08:38:33;;;;;;;13.23;2.90;;;16.90;92.10;;;;;;7368944;19;20082;-76
2022/12/31 08:41:11;;;;;;;6.47;2.75;;;17.00;91.90;;;;;;7367028;19;20025;-76
2022/12/31 08:43:50;;;;;;;8.00;2.22;;;17.00;91.90;;;;;;7365424;19;20668;-78
2022/12/31 08:46:27;;;;;;;12.68;2.50;;;17.00;91.80;;;;;;7369855;19;20010;-77
2022/12/31 08:48:56;;;;;;;13.15;2.75;;;17.10;91.60;;;;;;7369257;19;20025;-78
2022/12/31 08:51:27;;;;;;;8.60;2.92;;;16.80;92.00;;;;;;7369601;19;20113;-78
2022/12/31 08:53:56;;;;;;;5.82;2.63;;;16.90;91.90;;;;;;7392470;19;20137;-78
2022/12/31 08:56:34;;;;;;;9.60;2.90;;;16.80;91.90;;;;;;7371051;19;20021;-77
2022/12/31 08:59:16;;;;;;;16.00;2.83;;;16.60;92.00;;;;;;7366433;19;20631;-77
2022/12/31 09:02:01;;;;;;;6.95;3.03;;;16.90;92.00;;;;;;7368025;19;20475;-77
2022/12/31 09:04:42;;;;;;;10.93;3.22;;;17.00;91.80;;;;;;7367637;19;20018;-77
2022/12/31 09:07:12;;;;;;;8.50;2.47;;;17.20;91.50;;;;;;7368411;19;20022;-77
2022/12/31 09:09:56;;;;;;;10.90;2.78;;;17.10;91.10;;;;;;7365345;19;20014;-78
2022/12/31 09:12:34;;;;;;;13.60;2.92;;;17.10;90.80;;;;;;7365971;19;20114;-77
2022/12/31 09:15:09;;;;;;;10.48;3.00;;;16.90;91.30;;;;;;7388135;19;20400;-77
2022/12/31 09:17:46;;;;;;;14.45;3.05;;;17.00;91.20;;;;;;7368002;19;20087;-77
2022/12/31 09:20:22;;;;;;;12.27;3.17;;;16.90;91.20;;;;;;7367112;19;20011;-77
2022/12/31 09:22:51;;;;;;;10.35;3.05;;;17.00;91.10;;;;;;7365671;19;20017;-76
2022/12/31 09:25:22;;;;;;;9.70;2.72;;;17.00;91.00;;;;;;7368765;19;20680;-77
2022/12/31 09:28:07;;;;;;;16.05;3.35;;;17.00;90.70;;;;;;7366412;19;20647;-77
2022/12/31 09:30:43;;;;;;;8.43;2.83;;;17.10;90.80;;;;;;7368921;19;20011;-76
2022/12/31 09:33:18;;;;;;;12.13;2.90;;;17.10;90.60;;;;;;7368195;19;20029;-77
2022/12/31 09:35:54;;;;;;;9.93;2.35;;;17.20;90.70;;;;;;7387037;19;20026;-76
2022/12/31 09:38:29;;;;;;;9.20;2.42;;;17.10;90.40;;;;;;7365914;19;20159;-76
2022/12/31 09:41:16;;;;;;;7.82;2.45;;;17.10;90.50;;;;;;7367821;19;20098;-77
2022/12/31 09:44:15;;;;;;;12.65;3.05;;;17.00;90.70;;;;;;7368933;19;20142;-76
2022/12/31 09:47:20;;;;;;;11.55;2.53;;;17.10;90.40;;;;;;7364602;19;20552;-77
2022/12/31 09:50:30;;;;;;;10.68;2.85;;;17.20;90.20;;;;;;7368425;19;21162;-77
2022/12/31 09:53:28;;;;;;;9.43;3.30;;;17.20;90.30;;;;;;7364821;19;20031;-78
2022/12/31 09:56:04;;;;;;;11.85;2.45;;;17.30;89.70;;;;;;7368209;19;20010;-77
2022/12/31 09:58:46;;;;;;;9.63;2.63;;;17.10;90.10;;;;;;7369470;19;20883;-79
2022/12/31 10:01:28;;;;;;;9.85;2.80;;;17.10;89.70;;;;;;7368797;19;20021;-76
2022/12/31 10:04:36;;;;;;;9.23;2.35;;;17.10;89.50;;;;;;7370294;19;20021;-77
2022/12/31 10:07:16;;;;;;;10.05;2.92;;;17.20;89.70;;;;;;7370683;19;20014;-77
2022/12/31 10:09:59;;;;;;;8.30;2.70;;;17.40;89.10;;;;;;7369893;19;20107;-77
2022/12/31 10:13:10;;;;;;;12.32;2.75;;;17.50;88.80;;;;;;7370106;19;20019;-78
2022/12/31 10:16:05;;;;;;;9.35;2.67;;;17.60;88.60;;;;;;7369857;19;20026;-77
2022/12/31 10:18:59;;;;;;;10.35;2.53;;;17.40;87.70;;;;;;7368974;19;20032;-77
2022/12/31 10:21:50;;;;;;;7.88;2.63;;;17.30;88.30;;;;;;7370637;19;20028;-77
2022/12/31 10:24:43;;;;;;;9.80;2.83;;;17.20;89.20;;;;;;7370034;19;20754;-78
2022/12/31 10:27:36;;;;;;;9.50;2.38;;;17.30;88.40;;;;;;7369702;19;20783;-78
2022/12/31 10:30:16;;;;;;;7.10;2.67;;;17.40;88.00;;;;;;7390985;19;20086;-78
2022/12/31 10:32:52;;;;;;;9.30;2.53;;;17.30;87.30;;;;;;7372939;19;20474;-78
2022/12/31 10:35:37;;;;;;;6.75;2.28;;;17.00;88.10;;;;;;7371811;19;20014;-78
2022/12/31 10:38:21;;;;;;;8.98;2.42;;;16.80;88.50;;;;;;7371800;19;20090;-77
2022/12/31 10:41:20;;;;;;;11.10;2.38;;;16.90;89.20;;;;;;7369611;19;20099;-78
2022/12/31 10:44:15;;;;;;;6.63;2.38;;;17.10;88.40;;;;;;7371676;19;20111;-77
2022/12/31 10:47:22;;;;;;;14.63;2.95;;;17.40;87.00;;;;;;7369895;19;20018;-78
2022/12/31 10:50:15;;;;;;;7.25;2.38;;;17.40;87.20;;;;;;7370223;19;20033;-78
2022/12/31 10:53:19;;;;;;;8.93;2.45;;;17.60;86.10;;;;;;7370842;19;20086;-78
2022/12/31 10:56:27;;;;;;;8.25;2.25;;;17.60;85.60;;;;;;7368651;19;20814;-78
2022/12/31 10:59:25;;;;;;;8.30;2.60;;;17.30;86.70;;;;;;7368775;19;20109;-78
2022/12/31 11:02:08;;;;;;;8.80;2.35;;;17.50;86.60;;;;;;7366877;19;20669;-78
2022/12/31 11:05:25;;;;;;;6.30;2.20;;;17.40;86.00;;;;;;7368639;19;20021;-78
2022/12/31 11:08:10;;;;;;;10.10;2.72;;;17.30;86.10;;;;;;7367666;19;20091;-77
2022/12/31 11:11:05;;;;;;;10.55;2.40;;;17.30;86.70;;;;;;7368639;19;20014;-77
2022/12/31 11:14:04;;;;;;;7.22;2.80;;;17.60;85.80;;;;;;7364624;19;20390;-78
2022/12/31 11:16:46;;;;;;;14.32;3.15;;;17.70;84.80;;;;;;7366029;19;20125;-78
2022/12/31 11:19:24;;;;;;;12.85;2.80;;;17.60;84.70;;;;;;7366635;19;20015;-77
2022/12/31 11:22:06;;;;;;;7.70;2.60;;;17.60;84.60;;;;;;7369246;19;20776;-77
2022/12/31 11:24:53;;;;;;;8.63;2.35;;;17.60;84.60;;;;;;7366656;19;20022;-77
2022/12/31 11:27:51;;;;;;;7.82;2.55;;;17.30;85.00;;;;;;7367303;19;20025;-77
2022/12/31 11:30:24;;;;;;;7.82;2.95;;;17.50;85.00;;;;;;7365190;19;20085;-77
2022/12/31 11:33:12;;;;;;;4.68;2.40;;;17.60;84.80;;;;;;7390545;19;20022;-77
2022/12/31 11:35:57;;;;;;;6.40;2.80;;;17.70;84.60;;;;;;7366335;19;20019;-78
2022/12/31 11:38:30;;;;;;;9.82;2.50;;;17.90;83.70;;;;;;7369956;19;20018;-78
2022/12/31 11:41:04;;;;;;;14.73;2.60;;;17.90;83.80;;;;;;7369525;19;20019;-77
2022/12/31 11:43:41;;;;;;;13.52;2.55;;;18.00;83.10;;;;;;7371924;19;20089;-77
2022/12/31 11:46:30;;;;;;;14.95;2.60;;;18.00;83.40;;;;;;7368650;19;20509;-78
2022/12/31 11:49:15;;;;;;;9.45;2.50;;;18.00;82.40;;;;;;7369927;19;20113;-78
2022/12/31 11:52:07;;;;;;;9.77;2.78;;;18.00;82.30;;;;;;7370082;19;20404;-77
2022/12/31 11:54:47;;;;;;;6.70;2.35;;;18.00;82.30;;;;;;7366788;19;20129;-78
2022/12/31 11:57:27;;;;;;;15.00;2.83;;;17.90;82.10;;;;;;7367435;19;20478;-78
2022/12/31 12:00:00;;;;;;;10.63;2.80;;;18.00;83.00;;;;;;7389826;19;20018;-77
2022/12/31 12:02:33;;;;;;;13.60;2.67;;;17.80;82.80;;;;;;7366900;19;20031;-79
2022/12/31 12:05:04;;;;;;;11.73;2.80;;;17.70;83.40;;;;;;7365978;19;20028;-79
2022/12/31 12:07:34;;;;;;;9.65;2.65;;;17.70;82.40;;;;;;7371790;19;20098;-78
2022/12/31 12:10:07;;;;;;;9.82;2.75;;;17.70;83.00;;;;;;7368407;19;20625;-79
2022/12/31 12:12:42;;;;;;;12.80;2.50;;;17.70;82.10;;;;;;7371240;19;20418;-80
2022/12/31 12:15:23;;;;;;;19.10;2.80;;;17.50;83.00;;;;;;7380444;19;20018;-78
2022/12/31 12:17:55;;;;;;;8.87;2.50;;;17.30;83.20;;;;;;7394303;19;20014;-78
2022/12/31 12:20:31;;;;;;;8.52;2.67;;;17.40;83.30;;;;;;7370295;19;20750;-78
2022/12/31 12:23:02;;;;;;;10.05;2.70;;;17.60;82.80;;;;;;7368981;19;20411;-78
2022/12/31 12:25:40;;;;;;;10.20;2.78;;;17.90;82.40;;;;;;7370362;19;20086;-78
2022/12/31 12:28:23;;;;;;;7.30;2.17;;;18.00;81.60;;;;;;7367684;19;20096;-77
2022/12/31 12:31:00;;;;;;;10.65;2.50;;;18.10;81.40;;;;;;7371705;19;20030;-78
2022/12/31 12:33:31;;;;;;;8.40;2.63;;;18.20;81.10;;;;;;7369445;19;20471;-78
2022/12/31 12:36:12;;;;;;;5.03;2.30;;;17.90;80.80;;;;;;7393636;19;20086;-77
2022/12/31 12:38:44;;;;;;;8.85;2.65;;;18.00;81.00;;;;;;7368826;19;20051;-77
2022/12/31 12:41:22;;;;;;;10.02;2.47;;;18.10;80.00;;;;;;7367289;19;20020;-78
2022/12/31 12:43:52;;;;;;;6.97;2.53;;;18.10;79.40;;;;;;7367885;19;20093;-77
2022/12/31 12:46:32;;;;;;;9.05;2.35;;;17.90;79.50;;;;;;7368615;19;20086;-77
2022/12/31 12:49:02;;;;;;;11.00;2.43;;;17.80;80.80;;;;;;7366799;19;20488;-77
2022/12/31 12:51:44;;;;;;;7.60;2.70;;;17.90;80.20;;;;;;7371953;19;20244;-77
2022/12/31 12:54:26;;;;;;;6.55;2.60;;;17.90;80.00;;;;;;7373408;19;20518;-77
2022/12/31 12:57:07;;;;;;;14.75;2.58;;;17.90;80.70;;;;;;7379961;19;20124;-77
2022/12/31 13:00:11;;;;;;;15.65;3.08;;;18.00;80.30;;;;;;7375539;19;20046;-77
2022/12/31 13:03:13;;;;;;;14.13;2.88;;;18.20;80.20;;;;;;7373419;19;20007;-77
2022/12/31 13:05:52;;;;;;;17.90;2.67;;;18.30;79.10;;;;;;7368710;19;20106;-77
2022/12/31 13:08:34;;;;;;;16.40;2.97;;;18.30;79.60;;;;;;7366141;19;20691;-77
2022/12/31 13:11:14;;;;;;;;;;;18.10;78.80;;;;;;7368132;19;20045;-77
2022/12/31 13:13:52;;;;;;;16.98;2.97;;;18.30;79.20;;;;;;7368804;19;20226;-77
2022/12/31 13:16:34;;;;;;;10.60;3.00;;;18.10;78.90;;;;;;7369374;19;20054;-78
2022/12/31 13:19:12;;;;;;;10.63;2.80;;;18.10;79.50;;;;;;7374158;19;20035;-78
2022/12/31 13:21:52;;;;;;;11.13;3.47;;;18.10;79.20;;;;;;7367984;19;20086;-78
2022/12/31 13:24:30;;;;;;;13.40;3.30;;;18.10;79.10;;;;;;7366009;19;20040;-78
2022/12/31 13:27:09;;;;;;;13.68;3.70;;;17.90;79.50;;;;;;7390212;19;20018;-78
2022/12/31 13:29:38;;;;;;;7.97;3.17;;;17.90;79.50;;;;;;7378296;19;20022;-78
2022/12/31 13:32:10;;;;;;;12.18;2.80;;;18.00;79.50;;;;;;7378719;19;20090;-78
2022/12/31 13:34:45;;;;;;;8.80;2.78;;;18.10;79.70;;;;;;7381130;19;20034;-78
2022/12/31 13:37:26;;;;;;;22.05;3.17;;;18.00;79.30;;;;;;7385187;19;20034;-78
2022/12/31 13:40:01;;;;;;;13.05;2.50;;;18.00;79.00;;;;;;7377460;19;20074;-78